sensor_id;sensor_type;location;lat;lon;timestamp;temperature;humidity
7700;DHT22;3892;47.794;19.126;2023-03-29T00:01:19;10.20;24.20
7700;DHT22;3892;47.794;19.126;2023-03-29T00:03:50;10.20;24.10
7700;DHT22;3892;47.794;19.126;2023-03-29T00:06:18;10.10;24.00
7700;DHT22;3892;47.794;19.126;2023-03-29T00:08:47;10.10;23.80
7700;DHT22;3892;47.794;19.126;2023-03-29T00:11:19;10.00;23.70
7700;DHT22;3892;47.794;19.126;2023-03-29T00:13:47;9.90;24.80
7700;DHT22;3892;47.794;19.126;2023-03-29T00:16:14;9.90;25.10
7700;DHT22;3892;47.794;19.126;2023-03-29T00:18:43;9.70;25.30
7700;DHT22;3892;47.794;19.126;2023-03-29T00:21:11;9.70;25.30
7700;DHT22;3892;47.794;19.126;2023-03-29T00:23:38;9.70;24.80
7700;DHT22;3892;47.794;19.126;2023-03-29T00:26:05;9.80;24.80
7700;DHT22;3892;47.794;19.126;2023-03-29T00:28:32;9.90;25.00
7700;DHT22;3892;47.794;19.126;2023-03-29T00:31:05;9.80;25.00
7700;DHT22;3892;47.794;19.126;2023-03-29T00:33:32;9.70;25.00
7700;DHT22;3892;47.794;19.126;2023-03-29T00:36:01;9.70;25.30
7700;DHT22;3892;47.794;19.126;2023-03-29T00:38:29;9.70;25.60
7700;DHT22;3892;47.794;19.126;2023-03-29T00:40:56;9.80;25.60
7700;DHT22;3892;47.794;19.126;2023-03-29T00:43:23;9.80;25.70
7700;DHT22;3892;47.794;19.126;2023-03-29T00:45:52;9.90;25.50
7700;DHT22;3892;47.794;19.126;2023-03-29T00:48:21;9.90;25.90
7700;DHT22;3892;47.794;19.126;2023-03-29T00:50:51;9.90;26.10
7700;DHT22;3892;47.794;19.126;2023-03-29T00:53:25;9.90;26.10
7700;DHT22;3892;47.794;19.126;2023-03-29T00:55:56;9.90;26.30
7700;DHT22;3892;47.794;19.126;2023-03-29T00:58:29;9.90;25.70
7700;DHT22;3892;47.794;19.126;2023-03-29T01:01:01;9.90;25.70
7700;DHT22;3892;47.794;19.126;2023-03-29T01:03:34;9.80;25.90
7700;DHT22;3892;47.794;19.126;2023-03-29T01:06:07;9.80;25.80
7700;DHT22;3892;47.794;19.126;2023-03-29T01:08:41;9.80;25.50
7700;DHT22;3892;47.794;19.126;2023-03-29T01:11:13;9.80;25.80
7700;DHT22;3892;47.794;19.126;2023-03-29T01:13:44;9.80;26.10
7700;DHT22;3892;47.794;19.126;2023-03-29T01:16:13;9.70;26.30
7700;DHT22;3892;47.794;19.126;2023-03-29T01:18:43;9.70;26.30
7700;DHT22;3892;47.794;19.126;2023-03-29T01:21:20;9.60;26.20
7700;DHT22;3892;47.794;19.126;2023-03-29T01:26:51;9.50;26.20
7700;DHT22;3892;47.794;19.126;2023-03-29T01:29:24;9.50;26.30
7700;DHT22;3892;47.794;19.126;2023-03-29T01:31:57;9.50;26.20
7700;DHT22;3892;47.794;19.126;2023-03-29T01:34:30;9.40;26.30
7700;DHT22;3892;47.794;19.126;2023-03-29T01:37:03;9.40;26.20
7700;DHT22;3892;47.794;19.126;2023-03-29T01:39:31;9.40;25.90
7700;DHT22;3892;47.794;19.126;2023-03-29T01:42:07;9.30;25.80
7700;DHT22;3892;47.794;19.126;2023-03-29T01:44:45;9.30;25.80
7700;DHT22;3892;47.794;19.126;2023-03-29T01:47:18;9.30;25.70
7700;DHT22;3892;47.794;19.126;2023-03-29T01:49:53;9.30;25.70
7700;DHT22;3892;47.794;19.126;2023-03-29T01:52:24;9.30;25.70
7700;DHT22;3892;47.794;19.126;2023-03-29T01:54:56;9.20;25.80
7700;DHT22;3892;47.794;19.126;2023-03-29T01:57:25;9.20;26.00
7700;DHT22;3892;47.794;19.126;2023-03-29T01:59:55;9.20;25.90
7700;DHT22;3892;47.794;19.126;2023-03-29T02:02:25;9.20;25.80
7700;DHT22;3892;47.794;19.126;2023-03-29T02:04:54;9.20;25.90
7700;DHT22;3892;47.794;19.126;2023-03-29T02:07:25;9.20;26.00
7700;DHT22;3892;47.794;19.126;2023-03-29T02:09:55;9.20;25.90
7700;DHT22;3892;47.794;19.126;2023-03-29T02:12:23;9.10;26.00
7700;DHT22;3892;47.794;19.126;2023-03-29T02:14:50;9.20;26.10
7700;DHT22;3892;47.794;19.126;2023-03-29T02:17:20;9.20;26.20
7700;DHT22;3892;47.794;19.126;2023-03-29T02:19:51;9.20;26.40
7700;DHT22;3892;47.794;19.126;2023-03-29T02:22:23;9.20;26.50
7700;DHT22;3892;47.794;19.126;2023-03-29T02:24:54;9.20;26.40
7700;DHT22;3892;47.794;19.126;2023-03-29T02:27:24;9.10;26.30
7700;DHT22;3892;47.794;19.126;2023-03-29T02:29:52;9.10;26.40
7700;DHT22;3892;47.794;19.126;2023-03-29T02:32:25;9.00;26.30
7700;DHT22;3892;47.794;19.126;2023-03-29T02:34:59;8.90;26.40
7700;DHT22;3892;47.794;19.126;2023-03-29T02:37:28;8.90;26.40
7700;DHT22;3892;47.794;19.126;2023-03-29T02:39:58;8.80;26.30
7700;DHT22;3892;47.794;19.126;2023-03-29T02:42:27;8.90;26.50
7700;DHT22;3892;47.794;19.126;2023-03-29T02:44:56;8.80;26.60
7700;DHT22;3892;47.794;19.126;2023-03-29T02:47:30;8.70;26.70
7700;DHT22;3892;47.794;19.126;2023-03-29T02:49:59;8.70;26.80
7700;DHT22;3892;47.794;19.126;2023-03-29T02:52:31;8.80;27.00
7700;DHT22;3892;47.794;19.126;2023-03-29T02:55:00;8.70;27.00
7700;DHT22;3892;47.794;19.126;2023-03-29T02:57:29;8.80;27.10
7700;DHT22;3892;47.794;19.126;2023-03-29T02:59:57;8.80;27.20
7700;DHT22;3892;47.794;19.126;2023-03-29T03:02:27;8.80;27.20
7700;DHT22;3892;47.794;19.126;2023-03-29T03:04:55;8.80;27.30
7700;DHT22;3892;47.794;19.126;2023-03-29T03:07:22;8.80;27.30
7700;DHT22;3892;47.794;19.126;2023-03-29T03:09:50;8.80;27.30
7700;DHT22;3892;47.794;19.126;2023-03-29T03:12:17;8.90;27.20
7700;DHT22;3892;47.794;19.126;2023-03-29T03:14:45;8.90;27.20
7700;DHT22;3892;47.794;19.126;2023-03-29T03:17:12;8.80;27.20
7700;DHT22;3892;47.794;19.126;2023-03-29T03:19:41;8.80;27.10
7700;DHT22;3892;47.794;19.126;2023-03-29T03:22:09;8.90;27.10
7700;DHT22;3892;47.794;19.126;2023-03-29T03:24:37;8.90;27.20
7700;DHT22;3892;47.794;19.126;2023-03-29T03:27:05;8.90;27.20
7700;DHT22;3892;47.794;19.126;2023-03-29T03:29:33;8.90;27.20
7700;DHT22;3892;47.794;19.126;2023-03-29T03:32:15;8.90;27.10
7700;DHT22;3892;47.794;19.126;2023-03-29T03:35:05;8.90;27.00
7700;DHT22;3892;47.794;19.126;2023-03-29T03:37:32;8.80;26.90
7700;DHT22;3892;47.794;19.126;2023-03-29T03:40:00;8.80;27.00
7700;DHT22;3892;47.794;19.126;2023-03-29T03:42:30;8.80;26.90
7700;DHT22;3892;47.794;19.126;2023-03-29T03:44:58;8.80;27.00
7700;DHT22;3892;47.794;19.126;2023-03-29T03:47:54;8.90;27.10
7700;DHT22;3892;47.794;19.126;2023-03-29T03:50:34;8.80;27.00
7700;DHT22;3892;47.794;19.126;2023-03-29T03:53:01;8.80;27.00
7700;DHT22;3892;47.794;19.126;2023-03-29T03:55:47;8.70;26.90
7700;DHT22;3892;47.794;19.126;2023-03-29T03:58:19;8.80;27.10
7700;DHT22;3892;47.794;19.126;2023-03-29T04:00:47;8.70;27.10
7700;DHT22;3892;47.794;19.126;2023-03-29T04:03:34;8.70;27.10
7700;DHT22;3892;47.794;19.126;2023-03-29T04:06:04;8.80;27.60
7700;DHT22;3892;47.794;19.126;2023-03-29T04:08:51;8.70;27.10
7700;DHT22;3892;47.794;19.126;2023-03-29T04:11:33;8.70;27.10
7700;DHT22;3892;47.794;19.126;2023-03-29T04:14:00;8.70;27.10
7700;DHT22;3892;47.794;19.126;2023-03-29T04:16:48;8.70;27.50
7700;DHT22;3892;47.794;19.126;2023-03-29T04:19:50;8.60;27.20
7700;DHT22;3892;47.794;19.126;2023-03-29T04:22:19;8.70;27.20
7700;DHT22;3892;47.794;19.126;2023-03-29T04:24:47;8.60;27.10
7700;DHT22;3892;47.794;19.126;2023-03-29T04:27:33;8.60;27.20
7700;DHT22;3892;47.794;19.126;2023-03-29T04:30:06;8.60;27.70
7700;DHT22;3892;47.794;19.126;2023-03-29T04:32:52;8.60;27.20
7700;DHT22;3892;47.794;19.126;2023-03-29T04:35:20;8.60;27.10
7700;DHT22;3892;47.794;19.126;2023-03-29T04:37:49;8.60;27.10
7700;DHT22;3892;47.794;19.126;2023-03-29T04:40:21;8.50;27.10
7700;DHT22;3892;47.794;19.126;2023-03-29T04:43:06;8.50;27.20
7700;DHT22;3892;47.794;19.126;2023-03-29T04:45:35;8.50;27.20
7700;DHT22;3892;47.794;19.126;2023-03-29T04:48:23;8.40;27.20
7700;DHT22;3892;47.794;19.126;2023-03-29T04:50:50;8.50;27.50
7700;DHT22;3892;47.794;19.126;2023-03-29T04:53:21;8.50;27.40
7700;DHT22;3892;47.794;19.126;2023-03-29T04:55:49;8.40;27.40
7700;DHT22;3892;47.794;19.126;2023-03-29T04:58:29;8.40;27.40
7700;DHT22;3892;47.794;19.126;2023-03-29T05:00:56;8.50;27.50
7700;DHT22;3892;47.794;19.126;2023-03-29T05:03:29;8.50;27.60
7700;DHT22;3892;47.794;19.126;2023-03-29T05:06:06;8.40;27.70
7700;DHT22;3892;47.794;19.126;2023-03-29T05:08:38;8.50;27.60
7700;DHT22;3892;47.794;19.126;2023-03-29T05:11:17;8.50;27.50
7700;DHT22;3892;47.794;19.126;2023-03-29T05:13:45;8.50;28.00
7700;DHT22;3892;47.794;19.126;2023-03-29T05:16:12;8.50;27.70
7700;DHT22;3892;47.794;19.126;2023-03-29T05:18:40;8.60;27.70
7700;DHT22;3892;47.794;19.126;2023-03-29T05:21:09;8.60;27.70
7700;DHT22;3892;47.794;19.126;2023-03-29T05:23:41;8.60;27.80
7700;DHT22;3892;47.794;19.126;2023-03-29T05:26:11;8.70;27.90
7700;DHT22;3892;47.794;19.126;2023-03-29T05:28:41;8.80;27.90
7700;DHT22;3892;47.794;19.126;2023-03-29T05:31:08;8.80;27.70
7700;DHT22;3892;47.794;19.126;2023-03-29T05:33:38;8.80;27.70
7700;DHT22;3892;47.794;19.126;2023-03-29T05:36:08;8.90;27.70
7700;DHT22;3892;47.794;19.126;2023-03-29T05:38:42;8.90;27.70
7700;DHT22;3892;47.794;19.126;2023-03-29T05:41:12;9.00;27.40
7700;DHT22;3892;47.794;19.126;2023-03-29T05:43:57;9.10;27.20
7700;DHT22;3892;47.794;19.126;2023-03-29T05:46:25;9.20;27.00
7700;DHT22;3892;47.794;19.126;2023-03-29T05:48:55;9.20;27.10
7700;DHT22;3892;47.794;19.126;2023-03-29T05:51:35;9.30;27.20
7700;DHT22;3892;47.794;19.126;2023-03-29T05:54:05;9.30;27.70
7700;DHT22;3892;47.794;19.126;2023-03-29T05:56:33;9.40;27.50
7700;DHT22;3892;47.794;19.126;2023-03-29T05:59:00;9.40;27.30
7700;DHT22;3892;47.794;19.126;2023-03-29T06:01:27;9.50;27.00
7700;DHT22;3892;47.794;19.126;2023-03-29T06:04:03;9.50;27.20
7700;DHT22;3892;47.794;19.126;2023-03-29T06:06:48;9.50;27.50
7700;DHT22;3892;47.794;19.126;2023-03-29T06:09:16;9.60;27.60
7700;DHT22;3892;47.794;19.126;2023-03-29T06:11:51;9.60;27.50
7700;DHT22;3892;47.794;19.126;2023-03-29T06:14:50;9.70;27.30
7700;DHT22;3892;47.794;19.126;2023-03-29T06:17:36;9.80;27.10
7700;DHT22;3892;47.794;19.126;2023-03-29T06:20:05;9.80;27.10
7700;DHT22;3892;47.794;19.126;2023-03-29T06:22:37;9.90;27.20
7700;DHT22;3892;47.794;19.126;2023-03-29T06:25:07;9.90;27.20
7700;DHT22;3892;47.794;19.126;2023-03-29T06:27:36;10.00;26.30
7700;DHT22;3892;47.794;19.126;2023-03-29T06:30:04;10.00;26.20
7700;DHT22;3892;47.794;19.126;2023-03-29T06:32:33;10.00;25.90
7700;DHT22;3892;47.794;19.126;2023-03-29T06:35:05;10.00;25.70
7700;DHT22;3892;47.794;19.126;2023-03-29T06:37:38;10.00;25.40
7700;DHT22;3892;47.794;19.126;2023-03-29T06:40:59;10.00;25.40
7700;DHT22;3892;47.794;19.126;2023-03-29T06:43:30;9.90;25.90
7700;DHT22;3892;47.794;19.126;2023-03-29T06:46:06;9.90;25.60
7700;DHT22;3892;47.794;19.126;2023-03-29T06:48:52;9.90;25.90
7700;DHT22;3892;47.794;19.126;2023-03-29T06:51:22;9.90;26.20
7700;DHT22;3892;47.794;19.126;2023-03-29T06:53:49;9.90;25.90
7700;DHT22;3892;47.794;19.126;2023-03-29T06:56:17;9.90;25.90
7700;DHT22;3892;47.794;19.126;2023-03-29T06:58:47;9.90;26.00
7700;DHT22;3892;47.794;19.126;2023-03-29T07:01:40;9.90;26.00
7700;DHT22;3892;47.794;19.126;2023-03-29T07:04:16;10.00;25.50
7700;DHT22;3892;47.794;19.126;2023-03-29T07:07:04;10.00;25.40
7700;DHT22;3892;47.794;19.126;2023-03-29T07:09:34;10.00;25.30
7700;DHT22;3892;47.794;19.126;2023-03-29T07:12:25;10.10;25.50
7700;DHT22;3892;47.794;19.126;2023-03-29T07:14:57;10.20;25.80
7700;DHT22;3892;47.794;19.126;2023-03-29T07:17:41;10.20;25.60
7700;DHT22;3892;47.794;19.126;2023-03-29T07:20:08;10.30;25.30
7700;DHT22;3892;47.794;19.126;2023-03-29T07:22:46;10.30;25.10
7700;DHT22;3892;47.794;19.126;2023-03-29T07:25:17;10.30;25.20
7700;DHT22;3892;47.794;19.126;2023-03-29T07:27:45;10.20;25.10
7700;DHT22;3892;47.794;19.126;2023-03-29T07:30:14;10.20;24.90
7700;DHT22;3892;47.794;19.126;2023-03-29T07:32:43;10.20;25.20
7700;DHT22;3892;47.794;19.126;2023-03-29T07:35:31;10.30;25.40
7700;DHT22;3892;47.794;19.126;2023-03-29T07:37:59;10.30;25.30
7700;DHT22;3892;47.794;19.126;2023-03-29T07:40:26;10.30;25.20
7700;DHT22;3892;47.794;19.126;2023-03-29T07:43:18;10.40;25.40
7700;DHT22;3892;47.794;19.126;2023-03-29T07:45:45;10.30;25.20
7700;DHT22;3892;47.794;19.126;2023-03-29T07:48:13;10.30;24.90
7700;DHT22;3892;47.794;19.126;2023-03-29T07:50:56;10.30;24.70
7700;DHT22;3892;47.794;19.126;2023-03-29T07:53:29;10.40;24.70
7700;DHT22;3892;47.794;19.126;2023-03-29T07:55:58;10.40;24.50
7700;DHT22;3892;47.794;19.126;2023-03-29T07:58:42;10.50;24.60
7700;DHT22;3892;47.794;19.126;2023-03-29T08:01:11;10.50;24.40
7700;DHT22;3892;47.794;19.126;2023-03-29T08:04:03;10.70;24.70
7700;DHT22;3892;47.794;19.126;2023-03-29T08:06:49;10.80;24.90
7700;DHT22;3892;47.794;19.126;2023-03-29T08:09:19;10.80;24.20
7700;DHT22;3892;47.794;19.126;2023-03-29T08:11:46;10.90;24.40
7700;DHT22;3892;47.794;19.126;2023-03-29T08:14:24;11.10;24.40
7700;DHT22;3892;47.794;19.126;2023-03-29T08:17:25;11.10;24.00
7700;DHT22;3892;47.794;19.126;2023-03-29T08:19:52;11.10;24.10
7700;DHT22;3892;47.794;19.126;2023-03-29T08:22:21;11.20;24.20
7700;DHT22;3892;47.794;19.126;2023-03-29T08:25:07;11.30;23.70
7700;DHT22;3892;47.794;19.126;2023-03-29T08:27:40;11.50;23.80
7700;DHT22;3892;47.794;19.126;2023-03-29T08:30:11;11.50;22.90
7700;DHT22;3892;47.794;19.126;2023-03-29T08:32:39;11.50;22.90
7700;DHT22;3892;47.794;19.126;2023-03-29T08:35:08;11.50;22.80
7700;DHT22;3892;47.794;19.126;2023-03-29T08:37:42;11.50;23.00
7700;DHT22;3892;47.794;19.126;2023-03-29T08:40:17;11.60;23.00
7700;DHT22;3892;47.794;19.126;2023-03-29T08:43:25;11.50;22.20
7700;DHT22;3892;47.794;19.126;2023-03-29T08:46:25;11.60;21.70
7700;DHT22;3892;47.794;19.126;2023-03-29T08:48:59;11.60;22.00
7700;DHT22;3892;47.794;19.126;2023-03-29T08:51:32;11.60;22.30
7700;DHT22;3892;47.794;19.126;2023-03-29T08:54:04;11.70;22.10
7700;DHT22;3892;47.794;19.126;2023-03-29T08:57:03;11.80;21.90
7700;DHT22;3892;47.794;19.126;2023-03-29T08:59:37;11.90;22.10
7700;DHT22;3892;47.794;19.126;2023-03-29T09:02:14;12.00;22.00
7700;DHT22;3892;47.794;19.126;2023-03-29T09:04:43;12.10;22.00
7700;DHT22;3892;47.794;19.126;2023-03-29T09:07:42;12.00;21.90
7700;DHT22;3892;47.794;19.126;2023-03-29T09:10:12;12.20;22.10
7700;DHT22;3892;47.794;19.126;2023-03-29T09:12:56;12.30;22.10
7700;DHT22;3892;47.794;19.126;2023-03-29T09:15:29;12.40;22.00
7700;DHT22;3892;47.794;19.126;2023-03-29T09:18:37;12.50;22.00
7700;DHT22;3892;47.794;19.126;2023-03-29T09:21:11;12.50;21.50
7700;DHT22;3892;47.794;19.126;2023-03-29T09:24:07;12.50;21.40
7700;DHT22;3892;47.794;19.126;2023-03-29T09:26:59;12.60;21.70
7700;DHT22;3892;47.794;19.126;2023-03-29T09:29:44;12.70;21.80
7700;DHT22;3892;47.794;19.126;2023-03-29T09:32:19;12.80;21.70
7700;DHT22;3892;47.794;19.126;2023-03-29T09:35:01;12.90;21.70
7700;DHT22;3892;47.794;19.126;2023-03-29T09:37:31;13.00;21.70
7700;DHT22;3892;47.794;19.126;2023-03-29T09:40:05;13.20;21.80
7700;DHT22;3892;47.794;19.126;2023-03-29T09:42:59;13.40;21.70
7700;DHT22;3892;47.794;19.126;2023-03-29T09:45:29;13.50;21.90
7700;DHT22;3892;47.794;19.126;2023-03-29T09:47:58;13.70;21.70
7700;DHT22;3892;47.794;19.126;2023-03-29T09:50:38;13.90;21.90
7700;DHT22;3892;47.794;19.126;2023-03-29T09:53:08;14.00;21.60
7700;DHT22;3892;47.794;19.126;2023-03-29T09:55:42;14.10;21.30
7700;DHT22;3892;47.794;19.126;2023-03-29T09:58:27;14.20;21.10
7700;DHT22;3892;47.794;19.126;2023-03-29T10:00:57;14.40;21.20
7700;DHT22;3892;47.794;19.126;2023-03-29T10:03:27;14.50;21.10
7700;DHT22;3892;47.794;19.126;2023-03-29T10:06:06;14.60;21.10
7700;DHT22;3892;47.794;19.126;2023-03-29T10:08:37;14.80;21.30
7700;DHT22;3892;47.794;19.126;2023-03-29T10:11:11;14.90;21.00
7700;DHT22;3892;47.794;19.126;2023-03-29T10:13:43;15.10;20.80
7700;DHT22;3892;47.794;19.126;2023-03-29T10:16:17;15.20;21.40
7700;DHT22;3892;47.794;19.126;2023-03-29T10:18:45;15.30;21.30
7700;DHT22;3892;47.794;19.126;2023-03-29T10:21:17;15.40;21.10
7700;DHT22;3892;47.794;19.126;2023-03-29T10:23:46;15.40;20.60
7700;DHT22;3892;47.794;19.126;2023-03-29T10:26:23;15.60;20.90
7700;DHT22;3892;47.794;19.126;2023-03-29T10:28:52;15.60;20.80
7700;DHT22;3892;47.794;19.126;2023-03-29T10:31:22;15.60;20.40
7700;DHT22;3892;47.794;19.126;2023-03-29T10:33:52;15.30;20.40
7700;DHT22;3892;47.794;19.126;2023-03-29T10:36:22;15.50;21.20
7700;DHT22;3892;47.794;19.126;2023-03-29T10:38:53;15.60;21.30
7700;DHT22;3892;47.794;19.126;2023-03-29T10:41:22;15.60;21.20
7700;DHT22;3892;47.794;19.126;2023-03-29T10:43:50;15.80;21.40
7700;DHT22;3892;47.794;19.126;2023-03-29T10:46:20;15.90;21.20
7700;DHT22;3892;47.794;19.126;2023-03-29T10:48:49;16.00;21.20
7700;DHT22;3892;47.794;19.126;2023-03-29T10:51:17;16.20;21.10
7700;DHT22;3892;47.794;19.126;2023-03-29T10:53:46;16.20;20.90
7700;DHT22;3892;47.794;19.126;2023-03-29T10:56:32;16.20;20.80
7700;DHT22;3892;47.794;19.126;2023-03-29T10:59:17;16.30;20.70
7700;DHT22;3892;47.794;19.126;2023-03-29T11:02:02;16.10;20.60
7700;DHT22;3892;47.794;19.126;2023-03-29T11:04:40;16.20;20.90
7700;DHT22;3892;47.794;19.126;2023-03-29T11:07:20;16.40;21.30
7700;DHT22;3892;47.794;19.126;2023-03-29T11:10:00;16.50;21.20
7700;DHT22;3892;47.794;19.126;2023-03-29T11:12:33;16.50;20.90
7700;DHT22;3892;47.794;19.126;2023-03-29T11:15:32;16.50;20.80
7700;DHT22;3892;47.794;19.126;2023-03-29T11:18:16;16.60;21.30
7700;DHT22;3892;47.794;19.126;2023-03-29T11:20:51;16.70;21.20
7700;DHT22;3892;47.794;19.126;2023-03-29T11:23:30;16.80;21.20
7700;DHT22;3892;47.794;19.126;2023-03-29T11:26:07;16.80;20.80
7700;DHT22;3892;47.794;19.126;2023-03-29T11:28:42;17.10;21.40
7700;DHT22;3892;47.794;19.126;2023-03-29T11:31:17;17.10;21.10
7700;DHT22;3892;47.794;19.126;2023-03-29T11:33:55;17.10;21.40
7700;DHT22;3892;47.794;19.126;2023-03-29T11:36:29;17.20;21.40
7700;DHT22;3892;47.794;19.126;2023-03-29T11:39:03;17.40;21.60
7700;DHT22;3892;47.794;19.126;2023-03-29T11:41:38;17.50;21.40
7700;DHT22;3892;47.794;19.126;2023-03-29T11:44:12;17.60;21.50
7700;DHT22;3892;47.794;19.126;2023-03-29T11:46:43;17.60;21.60
7700;DHT22;3892;47.794;19.126;2023-03-29T11:49:15;17.50;21.20
7700;DHT22;3892;47.794;19.126;2023-03-29T11:51:47;17.60;21.10
7700;DHT22;3892;47.794;19.126;2023-03-29T11:54:22;17.70;21.40
7700;DHT22;3892;47.794;19.126;2023-03-29T11:56:56;17.80;21.00
7700;DHT22;3892;47.794;19.126;2023-03-29T11:59:29;17.70;21.20
7700;DHT22;3892;47.794;19.126;2023-03-29T12:02:02;17.50;21.20
7700;DHT22;3892;47.794;19.126;2023-03-29T12:04:32;17.40;21.30
7700;DHT22;3892;47.794;19.126;2023-03-29T12:07:08;17.50;21.60
7700;DHT22;3892;47.794;19.126;2023-03-29T12:09:40;17.50;21.10
7700;DHT22;3892;47.794;19.126;2023-03-29T12:12:16;17.60;21.70
7700;DHT22;3892;47.794;19.126;2023-03-29T12:14:54;17.40;20.90
7700;DHT22;3892;47.794;19.126;2023-03-29T12:17:27;17.70;21.50
7700;DHT22;3892;47.794;19.126;2023-03-29T12:20:04;17.80;21.10
7700;DHT22;3892;47.794;19.126;2023-03-29T12:22:36;17.80;21.10
7700;DHT22;3892;47.794;19.126;2023-03-29T12:25:04;17.80;20.90
7700;DHT22;3892;47.794;19.126;2023-03-29T12:27:38;17.90;21.00
7700;DHT22;3892;47.794;19.126;2023-03-29T12:30:20;18.00;21.60
7700;DHT22;3892;47.794;19.126;2023-03-29T12:33:08;18.20;21.20
7700;DHT22;3892;47.794;19.126;2023-03-29T12:36:05;18.30;21.10
7700;DHT22;3892;47.794;19.126;2023-03-29T12:38:53;18.40;21.30
7700;DHT22;3892;47.794;19.126;2023-03-29T12:41:49;18.50;21.60
7700;DHT22;3892;47.794;19.126;2023-03-29T12:44:45;18.60;20.90
7700;DHT22;3892;47.794;19.126;2023-03-29T12:47:23;18.60;20.90
7700;DHT22;3892;47.794;19.126;2023-03-29T12:49:53;18.70;21.50
7700;DHT22;3892;47.794;19.126;2023-03-29T12:52:26;18.60;20.90
7700;DHT22;3892;47.794;19.126;2023-03-29T12:54:57;18.50;20.70
7700;DHT22;3892;47.794;19.126;2023-03-29T12:57:27;18.60;21.20
7700;DHT22;3892;47.794;19.126;2023-03-29T13:00:10;18.60;21.20
7700;DHT22;3892;47.794;19.126;2023-03-29T13:02:38;18.40;20.70
7700;DHT22;3892;47.794;19.126;2023-03-29T13:05:26;18.50;21.40
7700;DHT22;3892;47.794;19.126;2023-03-29T13:07:54;18.70;21.60
7700;DHT22;3892;47.794;19.126;2023-03-29T13:10:37;18.80;21.10
7700;DHT22;3892;47.794;19.126;2023-03-29T13:13:14;18.80;20.90
7700;DHT22;3892;47.794;19.126;2023-03-29T13:15:44;19.00;21.20
7700;DHT22;3892;47.794;19.126;2023-03-29T13:18:27;19.10;20.90
7700;DHT22;3892;47.794;19.126;2023-03-29T13:21:04;19.10;20.90
7700;DHT22;3892;47.794;19.126;2023-03-29T13:23:43;19.30;21.60
7700;DHT22;3892;47.794;19.126;2023-03-29T13:26:21;19.30;20.70
7700;DHT22;3892;47.794;19.126;2023-03-29T13:29:13;19.40;21.00
7700;DHT22;3892;47.794;19.126;2023-03-29T13:31:48;19.40;20.30
7700;DHT22;3892;47.794;19.126;2023-03-29T13:34:28;19.40;20.60
7700;DHT22;3892;47.794;19.126;2023-03-29T13:37:03;19.20;20.60
7700;DHT22;3892;47.794;19.126;2023-03-29T13:39:33;19.20;20.50
7700;DHT22;3892;47.794;19.126;2023-03-29T13:42:07;19.20;20.70
7700;DHT22;3892;47.794;19.126;2023-03-29T13:44:40;19.10;20.80
7700;DHT22;3892;47.794;19.126;2023-03-29T13:47:28;19.00;20.20
7700;DHT22;3892;47.794;19.126;2023-03-29T13:50:05;18.90;20.70
7700;DHT22;3892;47.794;19.126;2023-03-29T13:52:37;18.90;21.10
7700;DHT22;3892;47.794;19.126;2023-03-29T13:55:11;18.90;21.10
7700;DHT22;3892;47.794;19.126;2023-03-29T13:57:42;18.80;20.90
7700;DHT22;3892;47.794;19.126;2023-03-29T14:00:15;18.70;21.00
7700;DHT22;3892;47.794;19.126;2023-03-29T14:02:48;18.60;20.80
7700;DHT22;3892;47.794;19.126;2023-03-29T14:05:20;18.40;20.70
7700;DHT22;3892;47.794;19.126;2023-03-29T14:07:51;18.30;20.80
7700;DHT22;3892;47.794;19.126;2023-03-29T14:10:23;18.20;21.30
7700;DHT22;3892;47.794;19.126;2023-03-29T14:12:52;18.20;21.10
7700;DHT22;3892;47.794;19.126;2023-03-29T14:15:22;18.20;21.50
7700;DHT22;3892;47.794;19.126;2023-03-29T14:17:54;18.20;21.30
7700;DHT22;3892;47.794;19.126;2023-03-29T14:20:22;18.30;21.60
7700;DHT22;3892;47.794;19.126;2023-03-29T14:22:50;18.30;21.50
7700;DHT22;3892;47.794;19.126;2023-03-29T14:25:18;18.40;21.50
7700;DHT22;3892;47.794;19.126;2023-03-29T14:27:47;18.40;21.20
7700;DHT22;3892;47.794;19.126;2023-03-29T14:30:20;18.40;20.90
7700;DHT22;3892;47.794;19.126;2023-03-29T14:32:48;18.50;20.80
7700;DHT22;3892;47.794;19.126;2023-03-29T14:35:18;18.50;20.80
7700;DHT22;3892;47.794;19.126;2023-03-29T14:37:47;18.40;20.60
7700;DHT22;3892;47.794;19.126;2023-03-29T14:40:16;18.40;20.80
7700;DHT22;3892;47.794;19.126;2023-03-29T14:42:45;18.40;20.80
7700;DHT22;3892;47.794;19.126;2023-03-29T14:45:15;18.30;20.90
7700;DHT22;3892;47.794;19.126;2023-03-29T14:47:43;18.30;21.20
7700;DHT22;3892;47.794;19.126;2023-03-29T14:50:18;18.30;21.10
7700;DHT22;3892;47.794;19.126;2023-03-29T14:52:46;18.20;21.20
7700;DHT22;3892;47.794;19.126;2023-03-29T14:55:15;18.10;20.90
7700;DHT22;3892;47.794;19.126;2023-03-29T14:57:48;18.00;21.00
7700;DHT22;3892;47.794;19.126;2023-03-29T15:00:21;17.90;21.10
7700;DHT22;3892;47.794;19.126;2023-03-29T15:02:54;17.90;21.20
7700;DHT22;3892;47.794;19.126;2023-03-29T15:05:29;17.80;21.20
7700;DHT22;3892;47.794;19.126;2023-03-29T15:07:59;17.70;21.10
7700;DHT22;3892;47.794;19.126;2023-03-29T15:10:26;17.70;21.30
7700;DHT22;3892;47.794;19.126;2023-03-29T15:12:53;17.60;21.20
7700;DHT22;3892;47.794;19.126;2023-03-29T15:15:22;17.50;21.20
7700;DHT22;3892;47.794;19.126;2023-03-29T15:17:50;17.50;21.40
7700;DHT22;3892;47.794;19.126;2023-03-29T15:20:20;17.50;21.70
7700;DHT22;3892;47.794;19.126;2023-03-29T15:22:57;17.50;21.80
7700;DHT22;3892;47.794;19.126;2023-03-29T15:25:26;17.40;21.40
7700;DHT22;3892;47.794;19.126;2023-03-29T15:27:55;17.30;21.40
7700;DHT22;3892;47.794;19.126;2023-03-29T15:30:32;17.30;22.20
7700;DHT22;3892;47.794;19.126;2023-03-29T15:33:13;17.30;21.70
7700;DHT22;3892;47.794;19.126;2023-03-29T15:35:41;17.30;21.60
7700;DHT22;3892;47.794;19.126;2023-03-29T15:38:11;17.30;21.60
7700;DHT22;3892;47.794;19.126;2023-03-29T15:40:38;17.20;21.60
7700;DHT22;3892;47.794;19.126;2023-03-29T15:43:06;17.30;21.70
7700;DHT22;3892;47.794;19.126;2023-03-29T15:45:33;17.20;21.90
7700;DHT22;3892;47.794;19.126;2023-03-29T15:48:00;17.20;22.10
7700;DHT22;3892;47.794;19.126;2023-03-29T15:50:29;17.20;21.80
7700;DHT22;3892;47.794;19.126;2023-03-29T15:52:56;17.10;21.80
7700;DHT22;3892;47.794;19.126;2023-03-29T15:55:26;17.20;22.00
7700;DHT22;3892;47.794;19.126;2023-03-29T15:57:55;17.20;22.30
7700;DHT22;3892;47.794;19.126;2023-03-29T16:00:24;17.20;22.40
7700;DHT22;3892;47.794;19.126;2023-03-29T16:02:52;17.30;22.00
7700;DHT22;3892;47.794;19.126;2023-03-29T16:05:19;17.30;21.90
7700;DHT22;3892;47.794;19.126;2023-03-29T16:07:46;17.30;22.00
7700;DHT22;3892;47.794;19.126;2023-03-29T16:10:13;17.30;22.20
7700;DHT22;3892;47.794;19.126;2023-03-29T16:12:41;17.20;21.80
7700;DHT22;3892;47.794;19.126;2023-03-29T16:15:12;17.30;21.80
7700;DHT22;3892;47.794;19.126;2023-03-29T16:17:41;17.20;21.70
7700;DHT22;3892;47.794;19.126;2023-03-29T16:20:08;17.20;22.00
7700;DHT22;3892;47.794;19.126;2023-03-29T16:22:40;17.20;22.10
7700;DHT22;3892;47.794;19.126;2023-03-29T16:25:11;17.30;22.20
7700;DHT22;3892;47.794;19.126;2023-03-29T16:27:39;17.30;22.10
7700;DHT22;3892;47.794;19.126;2023-03-29T16:30:09;17.20;21.70
7700;DHT22;3892;47.794;19.126;2023-03-29T16:32:36;17.10;21.90
7700;DHT22;3892;47.794;19.126;2023-03-29T16:35:05;17.10;22.10
7700;DHT22;3892;47.794;19.126;2023-03-29T16:37:33;17.10;22.40